Adana/Incirlik, Turkey
Current Conditions -  °F | °C
As of 9:20 PM on Friday 28 Nov 2014 (Local Time) from LTAG Reporting Station
Clear Clear  
Wind Chill: 44°   Ceiling: Unl
Heat Index: 46°   Visibility: 6mi
Dew Point: 41°   Wind: 5mph
Humidity: 81%   Direction: 20°NNE
Pressure: 30.21"   Gusts: NA
Location:  37°N, 35.42°E
Report Text: LTAG 281820Z 02004KT CAVOK 08/05 Q1023 NOSIG
Loading
Personal Weather Stations






























Interactive Weather Map New forecast layout! Learn more

10-Day Weather Forecast

Advertisements
Track Severe Weather on mobile